• Join FlightAware (Why Join?)
  • Login
  • US Flag 
07:10AM EDT


 

Airport Tracker/Info


-or-


 

Live Flight TrackerFlight Track Log ✈ N425AP ✈ 30-Apr-2013 ✈ KGKY - KTDW

Flight Track Log - Related Links

Times and Time Zones

All times are in EDT time to prevent confusion due to time zone crossing. See the N425AP flight status page for this flight to view local times or setup timezone preferences in your user account.

Time Position Orientation Groundspeed Altitude Reporting Facility
EDT Latitude Longitude Course Direction KTS MPH feet Rate Location/Type
12:23AM 32.6500 -97.0833 270° West 116 133 900  Level Dallas / Fort Worth TRACON
12:23AM 32.6500 -97.1000 270° West 144 166 2,400 1,620 Climbing Dallas / Fort Worth TRACON
12:27AM 32.7257 -97.2013 301° West  Level FlightAware Approximate
12:30AM 32.8397 -97.4506 301° West 187 215 12,600  Level Fort Worth Center
12:31AM 32.8647 -97.4925 305° West 182 209 13,900 1,440 Climbing Fort Worth Center
12:32AM 32.8981 -97.5519 304° West 182 209 15,500 1,440 Climbing Fort Worth Center
12:33AM 32.9231 -97.5942 305° West 188 216 16,800 1,200 Climbing Fort Worth Center
12:34AM 32.9954 -97.6574 301° West  Level FlightAware Approximate
12:34AM 32.9542 -97.6461 306° West 188 216 18,000  Level Fort Worth Center
12:35AM 33.0356 -97.7212 301° West  Level FlightAware Approximate
12:35AM 32.9853 -97.7056 302° West 188 216 19,300  Level Fort Worth Center
12:36AM 33.0019 -97.7578 291° West 183 211 20,400 1,200 Climbing Fort Worth Center
12:37AM 33.0331 -97.8150 303° West 189 217 21,800 780 Climbing Fort Worth Center
12:38AM 33.0664 -97.8597 312° West 194 223 22,000 60 Climbing Fort Worth Center
12:39AM 33.1100 -97.9292 307° West 225 259 22,000  Level Fort Worth Center
12:40AM 33.1450 -97.9914 304° West 251 289 22,000  Level Fort Worth Center
12:41AM 33.1886 -98.0664 305° West 258 297 22,000  Level Fort Worth Center
12:42AM 33.2236 -98.1311 303° West 258 297 22,000  Level Fort Worth Center
12:43AM 33.2692 -98.2108 304° West 258 297 22,000  Level Fort Worth Center
12:44AM 33.3042 -98.2733 304° West 258 297 22,000  Level Fort Worth Center
12:45AM 33.3475 -98.3533 303° West 258 297 22,000  Level Fort Worth Center
12:46AM 33.3867 -98.4186 306° West 258 297 22,000  Level Fort Worth Center
12:47AM 33.4256 -98.4936 302° West 263 303 22,000  Level Fort Worth Center
12:48AM 33.4667 -98.5664 304° West 263 303 22,000  Level Fort Worth Center
12:49AM 33.5058 -98.6367 304° West 256 295 22,000  Level Fort Worth Center
12:50AM 33.5406 -98.7044 302° West 256 295 22,000  Level Fort Worth Center
12:51AM 33.5814 -98.7772 304° West 256 295 22,000  Level Fort Worth Center
12:52AM 33.6203 -98.8453 304° West 256 295 22,000  Level Fort Worth Center
12:53AM 33.6592 -98.9183 303° West 256 295 22,000  Level Fort Worth Center
12:54AM 33.6958 -98.9889 302° West 256 295 22,000  Level Fort Worth Center
12:56AM 33.7753 -99.1353 303° West 255 293 22,000  Level Fort Worth Center
12:57AM 33.8119 -99.2058 302° West 261 300 22,000  Level Fort Worth Center
12:58AM 33.8506 -99.2717 305° West 255 293 22,000  Level Fort Worth Center
12:59AM 33.8892 -99.3475 302° West 260 299 22,000  Level Fort Worth Center
01:00AM 33.9278 -99.4186 303° West 260 299 22,000  Level Fort Worth Center
01:01AM 33.9661 -99.4894 303° West 260 299 22,000  Level Fort Worth Center
01:02AM 34.0044 -99.5656 301° West 260 299 22,000  Level Fort Worth Center
01:03AM 34.0431 -99.6342 304° West 260 299 22,000  Level Fort Worth Center
01:04AM 34.0792 -99.7081 301° West 260 299 22,000  Level Fort Worth Center
01:05AM 34.1217 -99.7792 306° West 260 299 22,000  Level Fort Worth Center
01:06AM 34.1578 -99.8556 300° West 260 299 22,000  Level Fort Worth Center
01:08AM 34.2433 -100.0153 303° West 257 296 22,000  Level Albuquerque Center
01:09AM 34.2819 -100.0875 303° West 257 296 22,000  Level Albuquerque Center
01:10AM 34.3225 -100.1644 303° West 258 297 22,000  Level Albuquerque Center
01:11AM 34.3603 -100.2375 302° West 257 296 22,000  Level Albuquerque Center
01:12AM 34.3989 -100.3131 302° West 262 302 22,000  Level Albuquerque Center
01:13AM 34.4369 -100.3856 302° West 258 297 22,000 -240 Level Albuquerque Center
01:14AM 34.4758 -100.4614 302° West 263 303 21,600 -540 Descending Albuquerque Center
01:15AM 34.5167 -100.5411 302° West 273 314 21,000 -600 Descending Albuquerque Center
01:16AM 34.5586 -100.6194 303° West 276 318 20,500 -420 Descending Albuquerque Center
01:17AM 34.5994 -100.6944 303° West 271 312 20,200 -180 Descending Albuquerque Center
01:18AM 34.6408 -100.7814 300° West 257 296 20,200  Level Albuquerque Center
01:19AM 34.6761 -100.8531 301° West 251 289 20,200  Level Albuquerque Center
01:20AM 34.7125 -100.9258 301° West 251 289 20,200  Level Albuquerque Center
01:21AM 34.7503 -100.9972 303° West 251 289 20,200  Level Albuquerque Center
01:22AM 34.7867 -101.0692 302° West 250 288 20,200 -480 Level Albuquerque Center
01:23AM 34.8231 -101.1414 302° West 252 290 19,300 -1,200 Descending Albuquerque Center
01:24AM 34.8622 -101.2178 302° West 259 298 17,800 -1,440 Descending Albuquerque Center
01:25AM 34.9025 -101.2967 302° West 270 311 16,400 -1,440 Descending Albuquerque Center
01:26AM 34.9414 -101.3750 301° West 271 312 15,000 -1,440 Descending Albuquerque Center